createdAt,value
2023-04-10T00:01:21.492Z,99744.48
2023-04-10T00:03:49.456Z,99744.75
2023-04-10T00:06:17.445Z,99742.24
2023-04-10T00:08:45.345Z,99741.78
2023-04-10T00:11:13.684Z,99736.02
2023-04-10T00:13:41.833Z,99732.17
2023-04-10T00:16:09.910Z,99732.40
2023-04-10T00:18:37.716Z,99729.70
2023-04-10T00:21:06.319Z,99730.90
2023-04-10T00:23:35.009Z,99730.16
2023-04-10T00:26:03.417Z,99728.80
2023-04-10T00:28:31.810Z,99721.13
2023-04-10T00:30:59.822Z,99723.26
2023-04-10T00:33:27.497Z,99724.85
2023-04-10T00:35:55.590Z,99723.84
2023-04-10T00:38:23.458Z,99722.60
2023-04-10T00:40:51.651Z,99722.61
2023-04-10T00:43:20.412Z,99721.22
2023-04-10T00:45:49.974Z,99718.77
2023-04-10T00:48:18.872Z,99724.05
2023-04-10T00:50:47.554Z,99722.41
2023-04-10T00:53:16.879Z,99722.27
2023-04-10T00:55:46.094Z,99718.85
2023-04-10T00:58:14.789Z,99721.84
2023-04-10T01:00:45.937Z,99722.00
2023-04-10T01:03:17.423Z,99717.41
2023-04-10T01:05:57.344Z,99717.27
2023-04-10T01:08:47.661Z,99716.23
2023-04-10T01:11:30.945Z,99712.97
2023-04-10T01:14:07.439Z,99712.69
2023-04-10T01:16:46.620Z,99711.22
2023-04-10T01:19:52.741Z,99705.46
2023-04-10T01:22:25.428Z,99705.14
2023-04-10T01:25:12.821Z,99703.80
2023-04-10T01:27:54.446Z,99697.73
2023-04-10T01:30:23.761Z,99698.12
2023-04-10T01:32:56.036Z,99699.94
2023-04-10T01:35:26.166Z,99700.63
2023-04-10T01:37:55.091Z,99702.02
2023-04-10T01:40:25.950Z,99703.30
2023-04-10T01:42:57.207Z,99701.69
2023-04-10T01:45:28.731Z,99697.64
2023-04-10T01:47:56.864Z,99698.70
2023-04-10T01:50:28.033Z,99695.19
2023-04-10T01:52:57.940Z,99695.86
2023-04-10T01:55:27.660Z,99692.86
2023-04-10T01:57:56.565Z,99692.73
2023-04-10T02:00:24.347Z,99694.52
2023-04-10T02:02:52.301Z,99695.80
2023-04-10T02:05:22.184Z,99693.69
2023-04-10T02:08:02.270Z,99695.14
2023-04-10T02:10:36.575Z,99695.71
2023-04-10T02:13:11.658Z,99698.41
2023-04-10T02:15:43.826Z,99702.85
2023-04-10T02:18:15.992Z,99702.10
2023-04-10T02:20:44.881Z,99701.87
2023-04-10T02:23:14.508Z,99703.25
2023-04-10T02:25:45.331Z,99702.89
2023-04-10T02:28:13.124Z,99707.59
2023-04-10T02:30:41.284Z,99702.96
2023-04-10T02:33:09.055Z,99701.33
2023-04-10T02:35:37.849Z,99696.90
2023-04-10T02:38:06.024Z,99702.33
2023-04-10T02:40:33.871Z,99700.26
2023-04-10T02:43:02.330Z,99702.58
2023-04-10T02:45:30.501Z,99704.23
2023-04-10T02:47:58.314Z,99702.19
2023-04-10T02:50:29.733Z,99698.00
2023-04-10T02:52:57.480Z,99694.65
2023-04-10T02:55:25.320Z,99690.58
2023-04-10T02:57:53.742Z,99688.85
2023-04-10T03:00:23.143Z,99682.57
2023-04-10T03:02:51.568Z,99682.59
2023-04-10T03:05:20.055Z,99686.56
2023-04-10T03:07:47.766Z,99690.33
2023-04-10T03:10:15.945Z,99689.98
2023-04-10T03:12:43.699Z,99687.37
2023-04-10T03:15:12.782Z,99689.31
2023-04-10T03:17:41.166Z,99686.20
2023-04-10T03:20:09.831Z,99684.88
2023-04-10T03:22:37.570Z,99689.17
2023-04-10T03:25:06.660Z,99685.39
2023-04-10T03:27:35.110Z,99685.98
2023-04-10T03:30:03.258Z,99687.05
2023-04-10T03:32:31.363Z,99684.64
2023-04-10T03:34:59.440Z,99686.22
2023-04-10T03:37:27.875Z,99686.31
2023-04-10T03:39:55.985Z,99687.77
2023-04-10T03:42:24.676Z,99686.60
2023-04-10T03:44:52.484Z,99691.91
2023-04-10T03:47:20.316Z,99691.95
2023-04-10T03:49:48.100Z,99691.45
2023-04-10T03:52:16.088Z,99689.19
2023-04-10T03:54:43.859Z,99689.02
2023-04-10T03:57:12.138Z,99692.22
2023-04-10T03:59:39.965Z,99686.83
2023-04-10T04:02:08.298Z,99691.08
2023-04-10T04:04:36.214Z,99690.28
2023-04-10T04:07:04.051Z,99693.16
2023-04-10T04:09:32.035Z,99699.37
2023-04-10T04:11:59.852Z,99696.77
2023-04-10T04:14:27.612Z,99692.75
2023-04-10T04:16:55.609Z,99687.80
2023-04-10T04:19:23.405Z,99688.81
2023-04-10T04:21:51.349Z,99693.16
2023-04-10T04:24:19.076Z,99692.75
2023-04-10T04:26:47.590Z,99688.64
2023-04-10T04:29:15.626Z,99691.92
2023-04-10T04:31:43.600Z,99692.02
2023-04-10T04:34:11.522Z,99692.42
2023-04-10T04:36:39.780Z,99693.17
2023-04-10T04:39:07.953Z,99701.52
2023-04-10T04:41:36.115Z,99699.52
2023-04-10T04:44:05.190Z,99699.77
2023-04-10T04:46:33.140Z,99700.61
2023-04-10T04:49:00.924Z,99701.28
2023-04-10T04:51:31.683Z,99705.15
2023-04-10T04:53:59.905Z,99701.79
2023-04-10T04:56:28.080Z,99700.86
2023-04-10T04:58:56.126Z,99703.48
2023-04-10T05:01:24.063Z,99700.08
2023-04-10T05:03:51.903Z,99701.30
2023-04-10T05:06:20.481Z,99706.27
2023-04-10T05:08:49.238Z,99711.38
2023-04-10T05:11:17.773Z,99713.31
2023-04-10T05:13:46.129Z,99715.69
2023-04-10T05:16:14.027Z,99720.63
2023-04-10T05:18:41.983Z,99715.02
2023-04-10T05:21:09.779Z,99715.91
2023-04-10T05:23:38.350Z,99718.55
2023-04-10T05:26:06.962Z,99719.55
2023-04-10T05:28:34.839Z,99729.51
2023-04-10T05:31:02.726Z,99730.11
2023-04-10T05:33:30.629Z,99732.47
2023-04-10T05:35:58.640Z,99734.72
2023-04-10T05:38:26.920Z,99737.95
2023-04-10T05:40:55.646Z,99738.49
2023-04-10T05:43:23.554Z,99741.59
2023-04-10T05:45:51.294Z,99741.64
2023-04-10T05:48:19.072Z,99741.10
2023-04-10T05:50:46.930Z,99738.90
2023-04-10T05:53:15.544Z,99742.41
2023-04-10T05:55:43.896Z,99738.71
2023-04-10T05:58:11.702Z,99731.13
2023-04-10T06:00:39.399Z,99733.46
2023-04-10T06:03:07.222Z,99733.83
2023-04-10T06:05:35.500Z,99735.57
2023-04-10T06:08:03.977Z,99728.78
2023-04-10T06:10:32.873Z,99730.61
2023-04-10T06:13:00.965Z,99726.72
2023-04-10T06:15:29.520Z,99727.45
2023-04-10T06:17:57.349Z,99729.48
2023-04-10T06:20:25.476Z,99733.94
2023-04-10T06:22:54.458Z,99726.55
2023-04-10T06:25:22.999Z,99727.14
2023-04-10T06:27:51.458Z,99730.89
2023-04-10T06:30:19.244Z,99731.94
2023-04-10T06:32:47.040Z,99729.60
2023-04-10T06:35:14.794Z,99731.10
2023-04-10T06:37:43.704Z,99736.80
2023-04-10T06:40:14.158Z,99732.40
2023-04-10T06:42:42.428Z,99724.83
2023-04-10T06:45:10.561Z,99725.33
2023-04-10T06:47:38.524Z,99721.52
2023-04-10T06:50:06.687Z,99720.81
2023-04-10T06:52:34.498Z,99722.16
2023-04-10T06:55:03.298Z,99723.97
2023-04-10T06:57:31.190Z,99722.67
2023-04-10T06:59:59.170Z,99724.63
2023-04-10T07:02:27.182Z,99725.35
2023-04-10T07:04:57.036Z,99720.58
2023-04-10T07:07:25.765Z,99719.02
2023-04-10T07:09:54.159Z,99720.21
2023-04-10T07:12:23.043Z,99718.46
2023-04-10T07:14:51.056Z,99717.67
2023-04-10T07:17:18.850Z,99718.11
2023-04-10T07:19:46.792Z,99716.21
2023-04-10T07:22:15.895Z,99721.02
2023-04-10T07:24:44.452Z,99718.55
2023-04-10T07:27:13.090Z,99714.65
2023-04-10T07:29:41.261Z,99718.09
2023-04-10T07:32:12.590Z,99714.77
2023-04-10T07:34:42.242Z,99715.02
2023-04-10T07:37:10.558Z,99714.77
2023-04-10T07:39:39.009Z,99712.61
2023-04-10T07:42:06.895Z,99704.84
2023-04-10T07:44:34.651Z,99705.54
2023-04-10T07:47:03.718Z,99706.58
2023-04-10T07:49:31.722Z,99706.64
2023-04-10T07:51:59.964Z,99705.11
2023-04-10T07:54:31.470Z,99703.33
2023-04-10T07:57:02.701Z,99707.07
2023-04-10T07:59:30.550Z,99705.61
2023-04-10T08:01:58.448Z,99702.19
2023-04-10T08:04:26.843Z,99703.67
2023-04-10T08:06:55.289Z,99704.25
2023-04-10T08:09:23.655Z,99702.61
2023-04-10T08:11:51.399Z,99705.09
2023-04-10T08:14:19.409Z,99698.59
2023-04-10T08:16:47.218Z,99699.21
2023-04-10T08:19:15.150Z,99689.16
2023-04-10T08:21:43.529Z,99694.25
2023-04-10T08:24:11.857Z,99693.00
2023-04-10T08:26:39.686Z,99689.20
2023-04-10T08:29:14.724Z,99687.11
2023-04-10T08:31:42.901Z,99681.60
2023-04-10T08:34:11.173Z,99679.43
2023-04-10T08:36:39.427Z,99674.04
2023-04-10T08:39:07.477Z,99678.19
2023-04-10T08:41:41.532Z,99678.26
2023-04-10T08:44:09.692Z,99673.20
2023-04-10T08:46:43.913Z,99676.15
2023-04-10T08:49:18.913Z,99672.53
2023-04-10T08:51:54.391Z,99678.71
2023-04-10T08:54:28.333Z,99672.19
2023-04-10T08:56:58.598Z,99672.85
2023-04-10T08:59:30.288Z,99670.35
2023-04-10T09:02:03.399Z,99666.59
2023-04-10T09:04:32.022Z,99665.07
2023-04-10T09:07:00.753Z,99660.88
2023-04-10T09:09:32.491Z,99658.02
2023-04-10T09:12:01.919Z,99660.38
2023-04-10T09:14:35.364Z,99659.04
2023-04-10T09:17:13.472Z,99665.38
2023-04-10T09:19:41.740Z,99658.57
2023-04-10T09:22:09.971Z,99660.39
2023-04-10T09:24:43.861Z,99652.89
2023-04-10T09:27:27.597Z,99648.21
2023-04-10T09:29:55.318Z,99643.38
2023-04-10T09:32:42.885Z,99635.21
2023-04-10T09:35:13.619Z,99639.36
2023-04-10T09:37:45.206Z,99636.82
2023-04-10T09:40:24.789Z,99633.94
2023-04-10T09:42:56.139Z,99626.92
2023-04-10T09:45:24.602Z,99631.59
2023-04-10T09:48:02.450Z,99628.54
2023-04-10T09:50:41.246Z,99627.77
2023-04-10T09:53:12.085Z,99625.70
2023-04-10T09:55:42.422Z,99621.44
2023-04-10T09:58:14.637Z,99618.95
2023-04-10T10:00:48.201Z,99621.42
2023-04-10T10:03:23.448Z,99621.02
2023-04-10T10:05:53.420Z,99621.83
2023-04-10T10:08:22.205Z,99616.60
2023-04-10T10:10:53.974Z,99609.44
2023-04-10T10:13:29.489Z,99612.96
2023-04-10T10:16:03.120Z,99608.56
2023-04-10T10:18:47.247Z,99605.66
2023-04-10T10:21:17.048Z,99603.80
2023-04-10T10:23:46.291Z,99601.09
2023-04-10T10:26:14.771Z,99602.65
2023-04-10T10:28:43.960Z,99592.84
2023-04-10T10:31:12.657Z,99582.95
2023-04-10T10:33:41.505Z,99578.71
2023-04-10T10:36:11.875Z,99576.64
2023-04-10T10:38:45.336Z,99571.60
2023-04-10T10:41:16.930Z,99574.14
2023-04-10T10:43:52.889Z,99570.53
2023-04-10T10:46:29.596Z,99571.16
2023-04-10T10:49:00.363Z,99563.13
2023-04-10T10:51:52.337Z,99560.13
2023-04-10T10:54:34.769Z,99557.63
2023-04-10T10:57:05.519Z,99555.10
2023-04-10T10:59:59.853Z,99549.91
2023-04-10T11:02:28.225Z,99550.37
2023-04-10T11:04:56.241Z,99545.41
2023-04-10T11:07:59.210Z,99541.73
2023-04-10T11:11:05.769Z,99539.82
2023-04-10T11:14:01.473Z,99527.72
2023-04-10T11:16:41.069Z,99535.72
2023-04-10T11:19:16.214Z,99536.61
2023-04-10T11:22:09.211Z,99535.93
2023-04-10T11:25:02.007Z,99537.48
2023-04-10T11:27:52.889Z,99542.15
2023-04-10T11:30:32.511Z,99541.86
2023-04-10T11:33:01.911Z,99544.23
2023-04-10T11:35:31.929Z,99545.08
2023-04-10T11:38:12.580Z,99539.70
2023-04-10T11:40:57.276Z,99530.05
2023-04-10T11:43:25.108Z,99524.23
2023-04-10T11:46:08.828Z,99515.00
2023-04-10T11:48:37.834Z,99514.92
2023-04-10T11:51:10.495Z,99503.70
2023-04-10T11:53:39.422Z,99498.23
2023-04-10T11:56:16.532Z,99488.77
2023-04-10T11:58:45.438Z,99479.66
2023-04-10T12:01:14.786Z,99471.61
2023-04-10T12:03:44.363Z,99469.02
2023-04-10T12:06:14.565Z,99462.95
2023-04-10T12:08:46.202Z,99469.63
2023-04-10T12:11:18.282Z,99470.52
2023-04-10T12:13:46.585Z,99462.50
2023-04-10T12:16:14.976Z,99461.26
2023-04-10T12:18:43.330Z,99450.90
2023-04-10T12:21:11.905Z,99456.16
2023-04-10T12:23:40.691Z,99445.33
2023-04-10T12:26:16.359Z,99448.45
2023-04-10T12:29:06.344Z,99451.22
2023-04-10T12:31:37.023Z,99451.60
2023-04-10T12:34:07.080Z,99447.05
2023-04-10T12:36:37.598Z,99448.23
2023-04-10T12:39:21.772Z,99452.13
2023-04-10T12:41:49.740Z,99448.77
2023-04-10T12:44:19.350Z,99448.62
2023-04-10T12:46:47.669Z,99446.40
2023-04-10T12:49:17.303Z,99443.34
2023-04-10T12:51:52.487Z,99436.35
2023-04-10T12:54:32.225Z,99435.08
2023-04-10T12:57:02.061Z,99432.54
2023-04-10T12:59:31.550Z,99434.31
2023-04-10T13:01:59.657Z,99431.91
2023-04-10T13:04:31.742Z,99427.89
2023-04-10T13:06:59.569Z,99414.02
2023-04-10T13:09:27.773Z,99416.79
2023-04-10T13:11:57.688Z,99406.77
2023-04-10T13:14:26.230Z,99405.36
2023-04-10T13:16:57.095Z,99399.90
2023-04-10T13:19:24.866Z,99395.95
2023-04-10T13:21:53.238Z,99394.12
2023-04-10T13:24:22.109Z,99398.33
2023-04-10T13:26:50.517Z,99398.73
2023-04-10T13:29:18.293Z,99399.52
2023-04-10T13:31:46.389Z,99404.41
2023-04-10T13:34:14.678Z,99402.40
2023-04-10T13:36:43.101Z,99395.42
2023-04-10T13:39:11.411Z,99398.18
2023-04-10T13:41:39.146Z,99397.21
2023-04-10T13:44:06.857Z,99394.25
2023-04-10T13:46:35.269Z,99395.29
2023-04-10T13:49:03.174Z,99391.38
2023-04-10T13:51:31.024Z,99388.91
2023-04-10T13:53:59.597Z,99386.67
2023-04-10T13:56:29.961Z,99390.70
2023-04-10T13:58:57.707Z,99396.82
2023-04-10T14:01:26.484Z,99400.54
2023-04-10T14:03:54.630Z,99393.23
2023-04-10T14:06:22.488Z,99400.16
2023-04-10T14:08:50.730Z,99398.11
2023-04-10T14:11:18.447Z,99398.44
2023-04-10T14:13:46.258Z,99407.89
2023-04-10T14:16:14.990Z,99414.92
2023-04-10T14:18:42.729Z,99424.91
2023-04-10T14:21:10.753Z,99436.67
2023-04-10T14:23:39.005Z,99440.17
2023-04-10T14:26:06.821Z,99452.86
2023-04-10T14:28:35.108Z,99452.84
2023-04-10T14:31:04.803Z,99451.21
2023-04-10T14:33:32.545Z,99452.69
2023-04-10T14:36:00.333Z,99441.83
2023-04-10T14:38:28.773Z,99426.61
2023-04-10T14:40:56.467Z,99424.48
2023-04-10T14:43:24.177Z,99427.34
2023-04-10T14:45:52.377Z,99422.33
2023-04-10T14:48:21.376Z,99423.25
2023-04-10T14:50:49.703Z,99421.08
2023-04-10T14:53:18.090Z,99420.21
2023-04-10T14:55:46.074Z,99418.16
2023-04-10T14:58:14.588Z,99422.54
2023-04-10T15:00:43.801Z,99425.41
2023-04-10T15:03:11.535Z,99416.04
2023-04-10T15:05:39.392Z,99402.67
2023-04-10T15:08:07.963Z,99399.31
2023-04-10T15:10:36.266Z,99403.90
2023-04-10T15:13:04.263Z,99410.35
2023-04-10T15:15:32.046Z,99411.98
2023-04-10T15:18:00.095Z,99406.58
2023-04-10T15:20:27.910Z,99405.17
2023-04-10T15:22:56.180Z,99402.95
2023-04-10T15:25:24.463Z,99406.26
2023-04-10T15:27:55.382Z,99401.52
2023-04-10T15:30:23.285Z,99404.41
2023-04-10T15:32:51.073Z,99408.55
2023-04-10T15:35:19.237Z,99416.39
2023-04-10T15:37:47.615Z,99452.73
2023-04-10T15:40:16.126Z,99484.46
2023-04-10T15:42:43.879Z,99491.52
2023-04-10T15:45:12.057Z,99489.52
2023-04-10T15:47:39.961Z,99493.76
2023-04-10T15:50:10.204Z,99494.56
2023-04-10T15:52:39.065Z,99496.71
2023-04-10T15:55:07.799Z,99501.30
2023-04-10T15:57:36.218Z,99495.43
2023-04-10T16:00:05.406Z,99490.80
2023-04-10T16:02:33.328Z,99484.64
2023-04-10T16:05:02.019Z,99491.21
2023-04-10T16:07:30.798Z,99496.48
2023-04-10T16:09:58.597Z,99487.20
2023-04-10T16:12:26.311Z,99480.66
2023-04-10T16:14:54.271Z,99478.70
2023-04-10T16:17:22.097Z,99478.11
2023-04-10T16:19:50.516Z,99471.84
2023-04-10T16:22:18.810Z,99469.11
2023-04-10T16:24:46.592Z,99459.56
2023-04-10T16:27:14.364Z,99457.16
2023-04-10T16:29:42.145Z,99454.78
2023-04-10T16:32:10.568Z,99453.74
2023-04-10T16:34:38.719Z,99456.17
2023-04-10T16:37:07.760Z,99464.70
2023-04-10T16:39:35.663Z,99456.30
2023-04-10T16:42:04.917Z,99457.12
2023-04-10T16:44:32.901Z,99459.39
2023-04-10T16:47:01.983Z,99460.20
2023-04-10T16:49:29.963Z,99458.34
2023-04-10T16:51:57.713Z,99452.21
2023-04-10T16:54:25.635Z,99447.02
2023-04-10T16:56:53.602Z,99441.30
2023-04-10T16:59:21.933Z,99431.34
2023-04-10T17:01:51.441Z,99427.36
2023-04-10T17:04:20.219Z,99421.75
2023-04-10T17:06:48.246Z,99420.23
2023-04-10T17:09:16.130Z,99422.48
2023-04-10T17:11:47.176Z,99429.11
2023-04-10T17:14:16.171Z,99435.08
2023-04-10T17:16:45.879Z,99435.83
2023-04-10T17:19:18.509Z,99435.26
2023-04-10T17:21:46.321Z,99431.90
2023-04-10T17:24:14.189Z,99436.73
2023-04-10T17:26:42.049Z,99439.29
2023-04-10T17:29:10.351Z,99443.45
2023-04-10T17:31:38.710Z,99446.75
2023-04-10T17:34:06.754Z,99450.25
2023-04-10T17:36:34.545Z,99447.70
2023-04-10T17:39:02.342Z,99449.65
2023-04-10T17:41:30.259Z,99460.61
2023-04-10T17:43:58.769Z,99455.13
2023-04-10T17:46:27.162Z,99461.33
2023-04-10T17:48:59.982Z,99460.52
2023-04-10T17:51:28.339Z,99448.14
2023-04-10T17:53:56.093Z,99446.32
2023-04-10T17:56:24.508Z,99444.95
2023-04-10T17:58:54.469Z,99444.08
2023-04-10T18:01:30.314Z,99436.93
2023-04-10T18:03:59.302Z,99438.46
2023-04-10T18:06:27.832Z,99434.84
2023-04-10T18:08:57.389Z,99434.27
2023-04-10T18:11:25.569Z,99438.27
2023-04-10T18:13:53.408Z,99435.48
2023-04-10T18:16:21.187Z,99440.92
2023-04-10T18:18:49.352Z,99432.45
2023-04-10T18:21:21.072Z,99427.61
2023-04-10T18:23:48.827Z,99434.14
2023-04-10T18:26:16.590Z,99435.11
2023-04-10T18:28:46.380Z,99432.58
2023-04-10T18:31:16.032Z,99439.17
2023-04-10T18:33:43.849Z,99441.80
2023-04-10T18:36:14.088Z,99443.04
2023-04-10T18:38:43.897Z,99444.70
2023-04-10T18:41:11.753Z,99441.55
2023-04-10T18:43:40.066Z,99438.56
2023-04-10T18:46:09.001Z,99437.40
2023-04-10T18:48:43.151Z,99441.69
2023-04-10T18:51:11.813Z,99447.13
2023-04-10T18:53:41.019Z,99447.88
2023-04-10T18:56:09.264Z,99446.00
2023-04-10T18:58:37.139Z,99441.91
2023-04-10T19:01:05.048Z,99444.44
2023-04-10T19:03:33.267Z,99445.45
2023-04-10T19:06:01.414Z,99442.08
2023-04-10T19:08:30.229Z,99445.12
2023-04-10T19:10:58.066Z,99447.00
2023-04-10T19:13:25.898Z,99444.07
2023-04-10T19:15:53.689Z,99446.34
2023-04-10T19:18:21.488Z,99445.77
2023-04-10T19:20:52.921Z,99446.31
2023-04-10T19:23:22.106Z,99441.84
2023-04-10T19:25:55.177Z,99436.92
2023-04-10T19:28:29.526Z,99437.27
2023-04-10T19:31:00.907Z,99435.45
2023-04-10T19:33:32.327Z,99437.34
2023-04-10T19:36:00.903Z,99438.01
2023-04-10T19:38:29.573Z,99436.25
2023-04-10T19:40:57.576Z,99438.63
2023-04-10T19:43:25.626Z,99439.44
2023-04-10T19:45:56.411Z,99439.02
2023-04-10T19:48:24.631Z,99441.48
2023-04-10T19:50:53.037Z,99438.45
2023-04-10T19:53:21.034Z,99437.08
2023-04-10T19:55:48.844Z,99438.70
2023-04-10T19:58:30.532Z,99432.94
2023-04-10T20:01:07.040Z,99431.43
2023-04-10T20:03:37.007Z,99429.73
2023-04-10T20:06:07.612Z,99427.52
2023-04-10T20:08:35.956Z,99423.30
2023-04-10T20:11:06.370Z,99426.16
2023-04-10T20:13:35.018Z,99429.98
2023-04-10T20:16:03.500Z,99428.70
2023-04-10T20:18:32.340Z,99428.69
2023-04-10T20:21:00.152Z,99424.09
2023-04-10T20:23:27.942Z,99424.86
2023-04-10T20:25:55.935Z,99428.50
2023-04-10T20:28:23.762Z,99426.20
2023-04-10T20:30:52.146Z,99422.69
2023-04-10T20:33:20.391Z,99418.27
2023-04-10T20:35:48.153Z,99413.81
2023-04-10T20:38:18.309Z,99415.44
2023-04-10T20:40:46.098Z,99409.84
2023-04-10T20:43:14.275Z,99409.84
2023-04-10T20:45:42.383Z,99407.74
2023-04-10T20:48:11.249Z,99406.20
2023-04-10T20:50:46.780Z,99409.41
2023-04-10T20:53:14.616Z,99410.77
2023-04-10T20:55:42.546Z,99411.77
2023-04-10T20:58:10.381Z,99412.35
2023-04-10T21:00:41.861Z,99410.11
2023-04-10T21:03:09.904Z,99406.16
2023-04-10T21:05:41.843Z,99403.65
2023-04-10T21:08:11.467Z,99402.08
2023-04-10T21:10:48.625Z,99398.21
2023-04-10T21:13:16.630Z,99397.52
2023-04-10T21:15:44.876Z,99396.39
2023-04-10T21:18:12.661Z,99393.70
2023-04-10T21:20:40.418Z,99391.77
2023-04-10T21:23:08.188Z,99388.73
2023-04-10T21:25:36.588Z,99386.94
2023-04-10T21:28:04.777Z,99382.04
2023-04-10T21:30:32.502Z,99380.14
2023-04-10T21:33:00.347Z,99374.54
2023-04-10T21:35:28.297Z,99381.02
2023-04-10T21:38:01.383Z,99379.40
2023-04-10T21:40:34.770Z,99382.23
2023-04-10T21:43:23.325Z,99380.16
2023-04-10T21:45:51.621Z,99376.86
2023-04-10T21:48:22.498Z,99373.11
2023-04-10T21:50:51.410Z,99370.13
2023-04-10T21:53:19.580Z,99372.66
2023-04-10T21:55:47.857Z,99372.91
2023-04-10T21:58:16.427Z,99370.12
2023-04-10T22:00:47.433Z,99369.06
2023-04-10T22:03:16.354Z,99373.92
2023-04-10T22:05:44.368Z,99375.62
2023-04-10T22:08:12.170Z,99377.85
2023-04-10T22:10:39.912Z,99372.91
2023-04-10T22:13:16.975Z,99371.09
2023-04-10T22:15:54.381Z,99366.55
2023-04-10T22:18:22.421Z,99363.38
2023-04-10T22:20:50.296Z,99361.70
2023-04-10T22:23:18.184Z,99357.09
2023-04-10T22:25:46.021Z,99353.66
2023-04-10T22:28:13.930Z,99351.08
2023-04-10T22:30:41.825Z,99352.34
2023-04-10T22:33:10.538Z,99352.07
2023-04-10T22:35:38.588Z,99355.90
2023-04-10T22:38:07.833Z,99344.18
2023-04-10T22:40:35.804Z,99341.31
2023-04-10T22:43:03.499Z,99340.41
2023-04-10T22:45:31.378Z,99337.73
2023-04-10T22:47:59.469Z,99336.22
2023-04-10T22:50:27.249Z,99337.74
2023-04-10T22:52:55.463Z,99340.88
2023-04-10T22:55:23.183Z,99341.41
2023-04-10T22:57:51.283Z,99339.81
2023-04-10T23:00:19.206Z,99337.76
2023-04-10T23:02:47.252Z,99335.19
2023-04-10T23:05:15.873Z,99328.85
2023-04-10T23:07:43.634Z,99328.66
2023-04-10T23:10:11.650Z,99323.08
2023-04-10T23:12:39.397Z,99320.61
2023-04-10T23:15:08.644Z,99317.95
2023-04-10T23:17:36.548Z,99310.38
2023-04-10T23:20:04.671Z,99307.50
2023-04-10T23:22:32.451Z,99306.61
2023-04-10T23:25:00.334Z,99306.85
2023-04-10T23:27:28.084Z,99303.73
2023-04-10T23:29:55.784Z,99301.63
2023-04-10T23:32:23.888Z,99297.16
2023-04-10T23:34:51.629Z,99290.85
2023-04-10T23:37:19.386Z,99287.38
2023-04-10T23:39:50.635Z,99282.41
2023-04-10T23:42:18.379Z,99281.90
2023-04-10T23:44:46.106Z,99287.11
2023-04-10T23:47:13.876Z,99288.35
2023-04-10T23:49:41.623Z,99284.33
2023-04-10T23:52:10.334Z,99277.93
2023-04-10T23:54:38.208Z,99275.40
2023-04-10T23:57:06.102Z,99276.65
2023-04-10T23:59:33.844Z,99284.89
